Anzahl Datensätze: 144
min. Temperatur: -4.1 °C
max. Temperatur: -1.7 °C
max. Windgeschwindigkeit: 13.7 km/h
Niederschlagsumme: 0.0 mm
| Datum |
Zeit |
Temp °C |
Feuchte % |
Taupunkt °C |
Luftdruck hPa |
Wind km/h |
Windrichtung |
Strahlung w/m² |
Niederschlag mm |
|---|---|---|---|---|---|---|---|---|---|
| 27.12.2024 | 00:05 | -2.8 | 93 | -3.7 | 1034.6 | 1.8 | NNO | 0 | 0.0 |
| 27.12.2024 | 00:15 | -2.6 | 94 | -3.5 | 1034.5 | 4.0 | S | 0 | 0.0 |
| 27.12.2024 | 00:25 | -2.7 | 94 | -3.5 | 1034.4 | 2.2 | N | 0 | 0.0 |
| 27.12.2024 | 00:35 | -2.6 | 94 | -3.5 | 1034.5 | 1.8 | N | 0 | 0.0 |
| 27.12.2024 | 00:45 | -2.6 | 94 | -3.4 | 1034.5 | 1.4 | N | 0 | 0.0 |
| 27.12.2024 | 00:55 | -2.6 | 94 | -3.5 | 1034.5 | 0.7 | SSW | 0 | 0.0 |
| 27.12.2024 | 01:05 | -2.6 | 94 | -3.5 | 1034.5 | 1.8 | N | 0 | 0.0 |
| 27.12.2024 | 01:15 | -2.7 | 94 | -3.5 | 1034.4 | 1.1 | N | 0 | 0.0 |
| 27.12.2024 | 01:25 | -2.6 | 93 | -3.5 | 1034.3 | 1.1 | N | 0 | 0.0 |
| 27.12.2024 | 01:35 | -2.8 | 93 | -3.8 | 1034.2 | 1.4 | N | 0 | 0.0 |
| 27.12.2024 | 01:45 | -2.9 | 94 | -3.7 | 1034.2 | 1.4 | SSW | 0 | 0.0 |
| 27.12.2024 | 01:55 | -2.9 | 94 | -3.7 | 1034.1 | 2.5 | NNO | 0 | 0.0 |
| 27.12.2024 | 02:05 | -2.8 | 95 | -3.5 | 1034.1 | 1.4 | N | 0 | 0.0 |
| 27.12.2024 | 02:15 | -2.7 | 94 | -3.5 | 1034.0 | 2.5 | NNO | 0 | 0.0 |
| 27.12.2024 | 02:25 | -2.8 | 95 | -3.5 | 1034.0 | 0.7 | N | 0 | 0.0 |
| 27.12.2024 | 02:35 | -2.3 | 94 | -3.1 | 1034.0 | 1.1 | N | 0 | 0.0 |
| 27.12.2024 | 02:45 | -2.4 | 92 | -3.6 | 1034.1 | 1.8 | NNW | 0 | 0.0 |
| 27.12.2024 | 02:55 | -2.8 | 94 | -3.7 | 1034.3 | 0.4 | N | 0 | 0.0 |
| 27.12.2024 | 03:05 | -2.9 | 95 | -3.7 | 1034.4 | 1.4 | N | 0 | 0.0 |
| 27.12.2024 | 03:15 | -2.7 | 94 | -3.6 | 1034.3 | 3.6 | S | 0 | 0.0 |
| 27.12.2024 | 03:25 | -3.1 | 95 | -3.8 | 1034.5 | 1.1 | N | 0 | 0.0 |
| 27.12.2024 | 03:35 | -2.9 | 95 | -3.7 | 1034.5 | 0.4 | N | 0 | 0.0 |
| 27.12.2024 | 03:45 | -3.0 | 94 | -3.8 | 1034.5 | 2.5 | NNO | 0 | 0.0 |
| 27.12.2024 | 03:55 | -2.9 | 94 | -3.8 | 1034.5 | 1.1 | N | 0 | 0.0 |
| 27.12.2024 | 04:05 | -3.1 | 93 | -4.0 | 1034.6 | 2.9 | N | 0 | 0.0 |
| 27.12.2024 | 04:15 | -3.1 | 94 | -4.0 | 1034.8 | 2.9 | NW | 0 | 0.0 |
| 27.12.2024 | 04:25 | -3.4 | 94 | -4.2 | 1034.9 | 1.8 | NNO | 0 | 0.0 |
| 27.12.2024 | 04:35 | -3.3 | 94 | -4.1 | 1034.9 | 2.5 | SSO | 0 | 0.0 |
| 27.12.2024 | 04:45 | -3.3 | 94 | -4.2 | 1034.8 | 2.2 | NNO | 0 | 0.0 |
| 27.12.2024 | 04:56 | -3.2 | 93 | -4.1 | 1034.8 | 0.4 | SW | 0 | 0.0 |
| 27.12.2024 | 05:06 | -3.4 | 94 | -4.2 | 1034.9 | 1.4 | S | 0 | 0.0 |
| 27.12.2024 | 05:16 | -3.4 | 95 | -4.1 | 1034.9 | 5.4 | SSW | 0 | 0.0 |
| 27.12.2024 | 05:26 | -3.3 | 95 | -3.9 | 1035.0 | 2.5 | NNW | 0 | 0.0 |
| 27.12.2024 | 05:36 | -3.2 | 94 | -4.0 | 1034.9 | 1.8 | SW | 0 | 0.0 |
| 27.12.2024 | 05:46 | -3.2 | 95 | -4.0 | 1035.0 | 1.8 | SW | 0 | 0.0 |
| 27.12.2024 | 05:56 | -3.0 | 95 | -3.7 | 1034.9 | 1.8 | NW | 0 | 0.0 |
| 27.12.2024 | 06:06 | -3.3 | 95 | -4.0 | 1034.8 | 4.7 | NNO | 0 | 0.0 |
| 27.12.2024 | 06:16 | -3.5 | 95 | -4.1 | 1034.9 | 1.8 | N | 0 | 0.0 |
| 27.12.2024 | 06:26 | -3.5 | 95 | -4.1 | 1035.0 | 2.5 | N | 0 | 0.0 |
| 27.12.2024 | 06:36 | -3.5 | 95 | -4.2 | 1034.9 | 5.0 | N | 0 | 0.0 |
| 27.12.2024 | 06:46 | -3.6 | 95 | -4.3 | 1035.0 | 2.9 | NO | 0 | 0.0 |
| 27.12.2024 | 06:56 | -3.5 | 95 | -4.1 | 1035.1 | 1.1 | N | 0 | 0.0 |
| 27.12.2024 | 07:06 | -3.3 | 95 | -3.9 | 1035.1 | 1.8 | ONO | 0 | 0.0 |
| 27.12.2024 | 07:16 | -3.3 | 95 | -4.0 | 1034.9 | 1.4 | N | 0 | 0.0 |
| 27.12.2024 | 07:26 | -3.5 | 95 | -4.1 | 1035.1 | 6.1 | S | 0 | 0.0 |
| 27.12.2024 | 07:36 | -3.6 | 95 | -4.2 | 1035.2 | 4.7 | NNO | 0 | 0.0 |
| 27.12.2024 | 07:46 | -3.6 | 95 | -4.3 | 1035.2 | 4.3 | NNO | 0 | 0.0 |
| 27.12.2024 | 07:56 | -3.7 | 95 | -4.4 | 1035.4 | 1.4 | N | 0 | 0.0 |
| 27.12.2024 | 08:06 | -3.6 | 95 | -4.3 | 1035.3 | 4.0 | S | 0 | 0.0 |
| 27.12.2024 | 08:16 | -3.8 | 95 | -4.5 | 1035.4 | 3.2 | N | 2 | 0.0 |
| 27.12.2024 | 08:26 | -3.8 | 95 | -4.5 | 1035.6 | 1.1 | N | 4 | 0.0 |
| 27.12.2024 | 08:36 | -3.3 | 96 | -3.9 | 1035.5 | 2.2 | SSW | 6 | 0.0 |
| 27.12.2024 | 08:46 | -3.6 | 95 | -4.3 | 1035.7 | 0.7 | OSO | 6 | 0.0 |
| 27.12.2024 | 08:56 | -3.6 | 95 | -4.3 | 1035.8 | 2.2 | NO | 7 | 0.0 |
| 27.12.2024 | 09:06 | -3.2 | 96 | -3.8 | 1035.9 | 1.4 | S | 8 | 0.0 |
| 27.12.2024 | 09:16 | -3.3 | 95 | -4.0 | 1036.0 | 1.1 | N | 10 | 0.0 |
| 27.12.2024 | 09:26 | -3.0 | 95 | -3.7 | 1035.8 | 1.4 | SSW | 9 | 0.0 |
| 27.12.2024 | 09:36 | -3.4 | 95 | -4.0 | 1035.8 | 1.4 | SW | 9 | 0.0 |
| 27.12.2024 | 09:46 | -3.6 | 95 | -4.2 | 1036.0 | 3.6 | WNW | 9 | 0.0 |
| 27.12.2024 | 09:56 | -3.5 | 96 | -4.1 | 1036.0 | 1.8 | N | 10 | 0.0 |
| 27.12.2024 | 10:06 | -3.9 | 95 | -4.5 | 1036.2 | 0.7 | N | 16 | 0.0 |
| 27.12.2024 | 10:16 | -3.5 | 95 | -4.1 | 1036.1 | 2.5 | N | 21 | 0.0 |
| 27.12.2024 | 10:27 | -3.2 | 95 | -3.9 | 1035.9 | 2.5 | N | 36 | 0.0 |
| 27.12.2024 | 10:37 | -2.9 | 96 | -3.5 | 1035.7 | 0.4 | N | 48 | 0.0 |
| 27.12.2024 | 10:47 | -2.9 | 96 | -3.5 | 1035.7 | 3.6 | N | 62 | 0.0 |
| 27.12.2024 | 10:57 | -3.0 | 96 | -3.5 | 1035.8 | 3.6 | S | 67 | 0.0 |
| 27.12.2024 | 11:07 | -3.2 | 96 | -3.7 | 1035.7 | 5.8 | SSW | 82 | 0.0 |
| 27.12.2024 | 11:17 | -3.3 | 96 | -3.9 | 1035.7 | 2.2 | SW | 91 | 0.0 |
| 27.12.2024 | 11:27 | -2.8 | 96 | -3.3 | 1035.5 | 2.2 | S | 118 | 0.0 |
| 27.12.2024 | 11:37 | -3.0 | 96 | -3.6 | 1035.4 | 6.1 | S | 129 | 0.0 |
| 27.12.2024 | 11:47 | -2.5 | 96 | -3.0 | 1035.2 | 4.0 | S | 134 | 0.0 |
| 27.12.2024 | 11:57 | -2.7 | 96 | -3.3 | 1035.2 | 0.7 | N | 107 | 0.0 |
| 27.12.2024 | 12:07 | -2.5 | 96 | -3.1 | 1035.1 | 1.8 | N | 120 | 0.0 |
| 27.12.2024 | 12:17 | -2.3 | 96 | -2.9 | 1034.9 | 4.3 | S | 121 | 0.0 |
| 27.12.2024 | 12:27 | -2.7 | 96 | -3.3 | 1035.0 | 4.0 | NO | 114 | 0.0 |
| 27.12.2024 | 12:37 | -2.1 | 96 | -2.7 | 1034.8 | 1.8 | SSW | 135 | 0.0 |
| 27.12.2024 | 12:47 | -2.3 | 97 | -2.8 | 1034.9 | 2.2 | SSW | 140 | 0.0 |
| 27.12.2024 | 12:57 | -2.4 | 96 | -2.9 | 1034.6 | 1.4 | S | 131 | 0.0 |
| 27.12.2024 | 13:07 | -1.9 | 96 | -2.4 | 1034.4 | 1.4 | SSW | 111 | 0.0 |
| 27.12.2024 | 13:17 | -2.0 | 96 | -2.5 | 1034.4 | 3.2 | S | 125 | 0.0 |
| 27.12.2024 | 13:27 | -2.0 | 96 | -2.5 | 1034.2 | 2.9 | SSW | 111 | 0.0 |
| 27.12.2024 | 13:37 | -2.0 | 97 | -2.4 | 1034.2 | 3.6 | SSW | 111 | 0.0 |
| 27.12.2024 | 13:47 | -2.0 | 96 | -2.5 | 1034.1 | 4.3 | S | 101 | 0.0 |
| 27.12.2024 | 13:57 | -1.7 | 96 | -2.2 | 1034.0 | 4.0 | SSO | 88 | 0.0 |
| 27.12.2024 | 14:07 | -1.9 | 97 | -2.3 | 1033.9 | 2.2 | S | 104 | 0.0 |
| 27.12.2024 | 14:17 | -2.0 | 97 | -2.4 | 1033.8 | 3.6 | S | 90 | 0.0 |
| 27.12.2024 | 14:27 | -2.1 | 97 | -2.6 | 1033.8 | 1.8 | SSW | 77 | 0.0 |
| 27.12.2024 | 14:37 | -1.9 | 97 | -2.3 | 1033.7 | 0.7 | N | 74 | 0.0 |
| 27.12.2024 | 14:47 | -2.1 | 96 | -2.6 | 1034.0 | 3.2 | N | 106 | 0.0 |
| 27.12.2024 | 14:57 | -2.5 | 97 | -3.0 | 1034.0 | 2.5 | SSW | 94 | 0.0 |
| 27.12.2024 | 15:07 | -2.3 | 96 | -2.8 | 1034.1 | 3.2 | S | 64 | 0.0 |
| 27.12.2024 | 15:17 | -2.4 | 96 | -2.9 | 1034.2 | 1.1 | N | 61 | 0.0 |
| 27.12.2024 | 15:27 | -2.3 | 96 | -2.8 | 1034.2 | 0.7 | SSW | 50 | 0.0 |
| 27.12.2024 | 15:38 | -2.1 | 96 | -2.6 | 1034.1 | 1.8 | S | 37 | 0.0 |
| 27.12.2024 | 15:48 | -1.9 | 96 | -2.4 | 1033.9 | 1.8 | N | 26 | 0.0 |
| 27.12.2024 | 15:58 | -2.1 | 96 | -2.6 | 1033.9 | 1.4 | NO | 17 | 0.0 |
| 27.12.2024 | 16:08 | -2.3 | 96 | -2.8 | 1033.9 | 2.5 | NNO | 12 | 0.0 |
| 27.12.2024 | 16:18 | -1.9 | 97 | -2.4 | 1034.0 | 1.4 | SW | 8 | 0.0 |
| 27.12.2024 | 16:28 | -2.0 | 97 | -2.4 | 1033.9 | 1.8 | N | 6 | 0.0 |
| 27.12.2024 | 16:38 | -2.4 | 96 | -2.9 | 1034.0 | 0.7 | SW | 4 | 0.0 |
| 27.12.2024 | 16:48 | -2.5 | 96 | -3.0 | 1034.0 | 1.8 | SSW | 2 | 0.0 |
| 27.12.2024 | 16:58 | -2.8 | 96 | -3.4 | 1034.1 | 2.5 | NNO | 0 | 0.0 |
| 27.12.2024 | 17:08 | -3.2 | 96 | -3.8 | 1034.2 | 2.9 | N | 0 | 0.0 |
| 27.12.2024 | 17:18 | -3.1 | 96 | -3.6 | 1034.2 | 2.9 | NNO | 0 | 0.0 |
| 27.12.2024 | 17:28 | -2.8 | 96 | -3.3 | 1034.1 | 1.8 | SSW | 0 | 0.0 |
| 27.12.2024 | 17:38 | -2.6 | 97 | -3.1 | 1034.1 | 2.2 | N | 0 | 0.0 |
| 27.12.2024 | 17:48 | -2.2 | 97 | -2.6 | 1034.0 | 1.8 | N | 0 | 0.0 |
| 27.12.2024 | 17:58 | -2.3 | 96 | -2.9 | 1034.0 | 1.1 | NNW | 0 | 0.0 |
| 27.12.2024 | 18:08 | -2.3 | 96 | -2.8 | 1034.1 | 1.8 | NNO | 0 | 0.0 |
| 27.12.2024 | 18:18 | -2.7 | 96 | -3.2 | 1034.2 | 2.2 | NNW | 0 | 0.0 |
| 27.12.2024 | 18:28 | -2.9 | 96 | -3.5 | 1034.3 | 0.7 | N | 0 | 0.0 |
| 27.12.2024 | 18:38 | -3.5 | 95 | -4.1 | 1034.6 | 1.1 | S | 0 | 0.0 |
| 27.12.2024 | 18:48 | -3.3 | 95 | -3.9 | 1034.5 | 0.4 | N | 0 | 0.0 |
| 27.12.2024 | 18:58 | -3.0 | 96 | -3.5 | 1034.6 | 1.4 | S | 0 | 0.0 |
| 27.12.2024 | 19:08 | -2.9 | 96 | -3.5 | 1034.6 | 1.4 | NW | 0 | 0.0 |
| 27.12.2024 | 19:18 | -3.3 | 95 | -4.0 | 1034.8 | 2.2 | N | 0 | 0.0 |
| 27.12.2024 | 19:28 | -3.5 | 95 | -4.1 | 1034.7 | 2.2 | NNO | 0 | 0.0 |
| 27.12.2024 | 19:38 | -3.6 | 95 | -4.2 | 1034.8 | 3.2 | N | 0 | 0.0 |
| 27.12.2024 | 19:48 | -3.7 | 95 | -4.3 | 1034.8 | 2.9 | N | 0 | 0.0 |
| 27.12.2024 | 19:58 | -3.6 | 95 | -4.3 | 1034.8 | 2.5 | NNO | 0 | 0.0 |
| 27.12.2024 | 20:08 | -3.7 | 95 | -4.4 | 1034.8 | 2.9 | NNO | 0 | 0.0 |
| 27.12.2024 | 20:18 | -3.8 | 95 | -4.5 | 1034.8 | 3.2 | N | 0 | 0.0 |
| 27.12.2024 | 20:28 | -3.9 | 95 | -4.6 | 1034.8 | 1.1 | N | 0 | 0.0 |
| 27.12.2024 | 20:38 | -3.9 | 95 | -4.6 | 1034.7 | 2.2 | NNO | 0 | 0.0 |
| 27.12.2024 | 20:49 | -3.8 | 95 | -4.4 | 1034.6 | 2.2 | N | 0 | 0.0 |
| 27.12.2024 | 20:59 | -3.6 | 96 | -4.2 | 1034.6 | 0.4 | N | 0 | 0.0 |
| 27.12.2024 | 21:09 | -3.8 | 95 | -4.6 | 1034.6 | 2.2 | N | 0 | 0.0 |
| 27.12.2024 | 21:19 | -3.9 | 95 | -4.6 | 1034.6 | 2.9 | N | 0 | 0.0 |
| 27.12.2024 | 21:29 | -3.9 | 95 | -4.6 | 1034.6 | 2.5 | NNO | 0 | 0.0 |
| 27.12.2024 | 21:39 | -4.1 | 95 | -4.8 | 1034.7 | 2.2 | NNO | 0 | 0.0 |
| 27.12.2024 | 21:49 | -4.0 | 95 | -4.7 | 1034.4 | 3.2 | NNO | 0 | 0.0 |
| 27.12.2024 | 21:59 | -3.9 | 95 | -4.5 | 1034.4 | 1.8 | N | 0 | 0.0 |
| 27.12.2024 | 22:09 | -3.9 | 95 | -4.6 | 1034.4 | 1.4 | NO | 0 | 0.0 |
| 27.12.2024 | 22:19 | -3.7 | 95 | -4.4 | 1034.3 | 1.8 | NNO | 0 | 0.0 |
| 27.12.2024 | 22:29 | -3.7 | 95 | -4.4 | 1034.4 | 1.1 | NNO | 0 | 0.0 |
| 27.12.2024 | 22:39 | -3.4 | 95 | -4.0 | 1034.3 | 1.1 | N | 0 | 0.0 |
| 27.12.2024 | 22:49 | -3.7 | 95 | -4.4 | 1034.4 | 2.5 | NO | 0 | 0.0 |
| 27.12.2024 | 22:59 | -3.6 | 95 | -4.3 | 1034.3 | 2.2 | NNO | 0 | 0.0 |
| 27.12.2024 | 23:09 | -3.5 | 96 | -4.1 | 1034.3 | 3.6 | NNO | 0 | 0.0 |
| 27.12.2024 | 23:19 | -3.3 | 96 | -3.8 | 1034.3 | 3.2 | N | 0 | 0.0 |
| 27.12.2024 | 23:29 | -3.1 | 96 | -3.6 | 1034.3 | 4.0 | N | 0 | 0.0 |
| 27.12.2024 | 23:39 | -3.1 | 96 | -3.6 | 1034.4 | 2.9 | N | 0 | 0.0 |
| 27.12.2024 | 23:49 | -2.8 | 96 | -3.3 | 1034.1 | 2.2 | N | 0 | 0.0 |
| 27.12.2024 | 23:59 | -2.5 | 96 | -3.0 | 1034.1 | 0.4 | SSO | 0 | 0.0 |